Main page
Satellite images 15-day forecastsClimateMarine weather Cyclones Lightning AirportsFAQ Newsletter About
Weather : Europe Africa North America South America Asia Australia-Oceania Others
Languages Contact

Charlotte, North Carolina, United States

Charlotte/Douglas International Airport

latitude: 35-12-48N, longitude: 080-56-55W, elevation: 748 ft


METAR: KCLT 290252Z 00000KT 10SM CLR 02/M06 A3029 RMK AO2 SLP262 T00171061 58001
TAF: KCLT 282331Z 2900/2924 20003KT P6SM FEW250 FM291500 20007KT P6SM SCT150

Time: 22:16 (03:16 UTC)

Current weather observation

The report was made 24 minutes ago, at 02:52 UTC
Calm wind
Temperature 36°F
Humidity 55%
Pressure 30.29 in. Hg
Visibility: 10 miles
Clear sky

Change units

Forecast

The report was made 3 hours and 45 minutes ago, at 23:31 UTC
Forecast valid from 29 at 00 UTC to 29 at 24 UTC
Wind 3 mph from the South/Southwest
Visibility: 6 miles
Few clouds at a height of 25000 ft
From 29 at 1500 UTC
Wind 8 mph from the South/Southwest
Visibility: 6 miles
Scattered clouds at a height of 15000 ft
The information on this site is subject to a disclaimer
Weather : Europe Africa North America South America Asia Australia-Oceania Others
Satellite images 15-day forecastsClimateMarine weather Cyclones Lightning AirportsFAQ Languages Contact Newsletter About